sensor_id;sensor_type;location;lat;lon;timestamp;pressure;altitude;pressure_sealevel;temperature;humidity
10852;BME280;5479;52.046;6.314;2023-09-18T00:01:56;100589.06;;;18.80;100.00
10852;BME280;5479;52.046;6.314;2023-09-18T00:04:24;100588.59;;;18.84;100.00
10852;BME280;5479;52.046;6.314;2023-09-18T00:06:52;100585.22;;;18.82;100.00
10852;BME280;5479;52.046;6.314;2023-09-18T00:09:23;100582.44;;;18.74;100.00
10852;BME280;5479;52.046;6.314;2023-09-18T00:11:51;100579.06;;;18.72;100.00
10852;BME280;5479;52.046;6.314;2023-09-18T00:14:19;100578.78;;;18.75;100.00
10852;BME280;5479;52.046;6.314;2023-09-18T00:16:47;100580.16;;;18.79;100.00
10852;BME280;5479;52.046;6.314;2023-09-18T00:19:15;100578.78;;;18.75;100.00
10852;BME280;5479;52.046;6.314;2023-09-18T00:21:43;100578.78;;;18.75;100.00
10852;BME280;5479;52.046;6.314;2023-09-18T00:24:11;100575.38;;;18.73;100.00
10852;BME280;5479;52.046;6.314;2023-09-18T00:26:41;100561.09;;;18.82;100.00
10852;BME280;5479;52.046;6.314;2023-09-18T00:29:09;100547.81;;;18.81;100.00
10852;BME280;5479;52.046;6.314;2023-09-18T00:31:37;100547.97;;;18.79;100.00
10852;BME280;5479;52.046;6.314;2023-09-18T00:34:05;100541.22;;;18.75;100.00
10852;BME280;5479;52.046;6.314;2023-09-18T00:36:33;100531.88;;;18.79;100.00
10852;BME280;5479;52.046;6.314;2023-09-18T00:39:01;100519.03;;;18.83;100.00
10852;BME280;5479;52.046;6.314;2023-09-18T00:41:30;100525.81;;;18.77;100.00
10852;BME280;5479;52.046;6.314;2023-09-18T00:43:59;100518.84;;;18.84;100.00
10852;BME280;5479;52.046;6.314;2023-09-18T00:46:27;100524.50;;;18.81;100.00
10852;BME280;5479;52.046;6.314;2023-09-18T00:48:55;100521.44;;;18.76;100.00
10852;BME280;5479;52.046;6.314;2023-09-18T00:51:23;100514.06;;;18.78;100.00
10852;BME280;5479;52.046;6.314;2023-09-18T00:53:51;100511.25;;;18.80;100.00
10852;BME280;5479;52.046;6.314;2023-09-18T00:56:19;100509.81;;;18.85;100.00
10852;BME280;5479;52.046;6.314;2023-09-18T00:58:47;100498.94;;;18.87;100.00
10852;BME280;5479;52.046;6.314;2023-09-18T01:01:18;100487.44;;;18.94;100.00
10852;BME280;5479;52.046;6.314;2023-09-18T01:03:49;100483.84;;;18.86;100.00
10852;BME280;5479;52.046;6.314;2023-09-18T01:06:19;100476.78;;;18.85;100.00
10852;BME280;5479;52.046;6.314;2023-09-18T01:08:48;100485.38;;;18.88;100.00
10852;BME280;5479;52.046;6.314;2023-09-18T01:11:26;100477.94;;;18.82;100.00
10852;BME280;5479;52.046;6.314;2023-09-18T01:14:09;100471.03;;;18.80;100.00
10852;BME280;5479;52.046;6.314;2023-09-18T01:16:44;100470.94;;;18.89;100.00
10852;BME280;5479;52.046;6.314;2023-09-18T01:19:16;100469.13;;;18.90;100.00
10852;BME280;5479;52.046;6.314;2023-09-18T01:21:45;100457.22;;;18.92;100.00
10852;BME280;5479;52.046;6.314;2023-09-18T01:24:14;100450.19;;;18.91;100.00
10852;BME280;5479;52.046;6.314;2023-09-18T01:26:42;100444.84;;;18.91;100.00
10852;BME280;5479;52.046;6.314;2023-09-18T01:29:10;100446.75;;;18.99;100.00
10852;BME280;5479;52.046;6.314;2023-09-18T01:31:38;100440.16;;;18.93;100.00
10852;BME280;5479;52.046;6.314;2023-09-18T01:34:06;100432.31;;;19.00;100.00
10852;BME280;5479;52.046;6.314;2023-09-18T01:36:34;100431.81;;;18.96;100.00
10852;BME280;5479;52.046;6.314;2023-09-18T01:39:02;100428.09;;;18.97;100.00
10852;BME280;5479;52.046;6.314;2023-09-18T01:41:33;100421.19;;;18.95;100.00
10852;BME280;5479;52.046;6.314;2023-09-18T01:44:01;100405.56;;;18.90;100.00
10852;BME280;5479;52.046;6.314;2023-09-18T01:46:33;100403.56;;;18.92;100.00
10852;BME280;5479;52.046;6.314;2023-09-18T01:49:02;100398.44;;;18.99;100.00
10852;BME280;5479;52.046;6.314;2023-09-18T01:51:30;100393.94;;;18.99;100.00
10852;BME280;5479;52.046;6.314;2023-09-18T01:53:58;100391.69;;;18.95;100.00
10852;BME280;5479;52.046;6.314;2023-09-18T01:56:26;100393.44;;;18.86;100.00
10852;BME280;5479;52.046;6.314;2023-09-18T01:58:56;100386.41;;;18.85;100.00
10852;BME280;5479;52.046;6.314;2023-09-18T02:01:24;100390.38;;;18.81;100.00
10852;BME280;5479;52.046;6.314;2023-09-18T02:03:51;100393.38;;;18.78;100.00
10852;BME280;5479;52.046;6.314;2023-09-18T02:06:19;100389.03;;;18.77;100.00
10852;BME280;5479;52.046;6.314;2023-09-18T02:08:47;100394.38;;;18.77;100.00
10852;BME280;5479;52.046;6.314;2023-09-18T02:11:15;100389.03;;;18.77;100.00
10852;BME280;5479;52.046;6.314;2023-09-18T02:13:43;100391.41;;;18.80;100.00
10852;BME280;5479;52.046;6.314;2023-09-18T02:16:12;100382.63;;;18.78;100.00
10852;BME280;5479;52.046;6.314;2023-09-18T02:18:40;100388.00;;;18.78;100.00
10852;BME280;5479;52.046;6.314;2023-09-18T02:21:10;100383.66;;;18.77;100.00
10852;BME280;5479;52.046;6.314;2023-09-18T02:23:38;100378.44;;;18.76;100.00
10852;BME280;5479;52.046;6.314;2023-09-18T02:26:06;100381.50;;;18.81;100.00
10852;BME280;5479;52.046;6.314;2023-09-18T02:28:34;100377.53;;;18.85;100.00
10852;BME280;5479;52.046;6.314;2023-09-18T02:31:03;100373.31;;;18.82;100.00
10852;BME280;5479;52.046;6.314;2023-09-18T02:33:32;100367.78;;;18.84;100.00
10852;BME280;5479;52.046;6.314;2023-09-18T02:36:00;100361.25;;;18.86;100.00
10852;BME280;5479;52.046;6.314;2023-09-18T02:38:28;100356.91;;;18.85;100.00
10852;BME280;5479;52.046;6.314;2023-09-18T02:40:57;100348.56;;;18.88;100.00
10852;BME280;5479;52.046;6.314;2023-09-18T02:43:25;100347.09;;;18.94;100.00
10852;BME280;5479;52.046;6.314;2023-09-18T02:45:53;100339.19;;;18.92;100.00
10852;BME280;5479;52.046;6.314;2023-09-18T02:48:21;100337.19;;;18.94;100.00
10852;BME280;5479;52.046;6.314;2023-09-18T02:50:50;100329.84;;;18.96;100.00
10852;BME280;5479;52.046;6.314;2023-09-18T02:53:20;100318.25;;;18.96;100.00
10852;BME280;5479;52.046;6.314;2023-09-18T02:55:49;100303.22;;;19.03;100.00
10852;BME280;5479;52.046;6.314;2023-09-18T02:58:19;100306.56;;;19.05;100.00
10852;BME280;5479;52.046;6.314;2023-09-18T03:00:48;100287.97;;;19.03;100.00
10852;BME280;5479;52.046;6.314;2023-09-18T03:03:16;100289.78;;;19.03;100.00
10852;BME280;5479;52.046;6.314;2023-09-18T03:05:44;100279.91;;;19.03;100.00
10852;BME280;5479;52.046;6.314;2023-09-18T03:08:14;100279.59;;;19.06;100.00
10852;BME280;5479;52.046;6.314;2023-09-18T03:10:43;100262.47;;;19.07;100.00
10852;BME280;5479;52.046;6.314;2023-09-18T03:13:14;100253.75;;;19.05;100.00
10852;BME280;5479;52.046;6.314;2023-09-18T03:16:02;100246.72;;;19.04;100.00
10852;BME280;5479;52.046;6.314;2023-09-18T03:18:30;100236.78;;;19.05;100.00
10852;BME280;5479;52.046;6.314;2023-09-18T03:20:58;100233.44;;;19.03;100.00
10852;BME280;5479;52.046;6.314;2023-09-18T03:23:27;100227.94;;;19.04;100.00
10852;BME280;5479;52.046;6.314;2023-09-18T03:25:57;100205.09;;;19.00;100.00
10852;BME280;5479;52.046;6.314;2023-09-18T03:28:26;100203.41;;;18.99;100.00
10852;BME280;5479;52.046;6.314;2023-09-18T03:30:56;100194.66;;;18.97;100.00
10852;BME280;5479;52.046;6.314;2023-09-18T03:33:25;100191.97;;;18.97;100.00
10852;BME280;5479;52.046;6.314;2023-09-18T03:35:53;100186.63;;;18.97;100.00
10852;BME280;5479;52.046;6.314;2023-09-18T03:38:24;100187.63;;;18.96;100.00
10852;BME280;5479;52.046;6.314;2023-09-18T03:40:53;100188.63;;;18.95;100.00
10852;BME280;5479;52.046;6.314;2023-09-18T03:43:22;100182.41;;;18.95;100.00
10852;BME280;5479;52.046;6.314;2023-09-18T03:45:50;100178.06;;;18.94;100.00
10852;BME280;5479;52.046;6.314;2023-09-18T03:48:19;100170.84;;;18.94;100.00
10852;BME280;5479;52.046;6.314;2023-09-18T03:50:48;100163.50;;;18.96;100.00
10852;BME280;5479;52.046;6.314;2023-09-18T03:53:16;100165.16;;;18.97;100.00
10852;BME280;5479;52.046;6.314;2023-09-18T03:55:44;100172.56;;;19.03;100.00
10852;BME280;5479;52.046;6.314;2023-09-18T03:58:14;100175.25;;;19.03;100.00
10852;BME280;5479;52.046;6.314;2023-09-18T04:00:42;100173.91;;;19.07;100.00
10852;BME280;5479;52.046;6.314;2023-09-18T04:03:11;100177.13;;;19.11;100.00
10852;BME280;5479;52.046;6.314;2023-09-18T04:05:39;100180.50;;;19.13;100.00
10852;BME280;5479;52.046;6.314;2023-09-18T04:08:07;100185.41;;;19.17;100.00
10852;BME280;5479;52.046;6.314;2023-09-18T04:10:35;100173.31;;;19.21;100.00
10852;BME280;5479;52.046;6.314;2023-09-18T04:13:03;100181.72;;;19.26;100.00
10852;BME280;5479;52.046;6.314;2023-09-18T04:15:33;100176.41;;;19.35;100.00
10852;BME280;5479;52.046;6.314;2023-09-18T04:18:04;100176.13;;;19.46;100.00
10852;BME280;5479;52.046;6.314;2023-09-18T04:20:32;100178.84;;;19.54;100.00
10852;BME280;5479;52.046;6.314;2023-09-18T04:23:19;100182.56;;;19.69;100.00
10852;BME280;5479;52.046;6.314;2023-09-18T04:25:49;100178.09;;;19.85;100.00
10852;BME280;5479;52.046;6.314;2023-09-18T04:28:19;100178.28;;;19.92;100.00
10852;BME280;5479;52.046;6.314;2023-09-18T04:30:50;100177.44;;;20.00;100.00
10852;BME280;5479;52.046;6.314;2023-09-18T04:33:19;100174.09;;;20.06;100.00
10852;BME280;5479;52.046;6.314;2023-09-18T04:35:48;100164.88;;;20.08;100.00
10852;BME280;5479;52.046;6.314;2023-09-18T04:38:16;100164.69;;;20.10;100.00
10852;BME280;5479;52.046;6.314;2023-09-18T04:40:46;100151.59;;;20.15;100.00
10852;BME280;5479;52.046;6.314;2023-09-18T04:43:14;100144.38;;;20.07;100.00
10852;BME280;5479;52.046;6.314;2023-09-18T04:45:42;100154.28;;;20.07;100.00
10852;BME280;5479;52.046;6.314;2023-09-18T04:48:12;100130.91;;;19.99;100.00
10852;BME280;5479;52.046;6.314;2023-09-18T04:50:39;100129.59;;;19.95;100.00
10852;BME280;5479;52.046;6.314;2023-09-18T04:53:09;100127.91;;;19.94;100.00
10852;BME280;5479;52.046;6.314;2023-09-18T04:55:37;100128.22;;;19.91;100.00
10852;BME280;5479;52.046;6.314;2023-09-18T04:58:06;100121.53;;;19.95;100.00
10852;BME280;5479;52.046;6.314;2023-09-18T05:00:34;100125.53;;;19.99;100.00
10852;BME280;5479;52.046;6.314;2023-09-18T05:03:02;100118.50;;;20.06;100.00
10852;BME280;5479;52.046;6.314;2023-09-18T05:05:32;100106.41;;;20.10;100.00
10852;BME280;5479;52.046;6.314;2023-09-18T05:08:01;100108.75;;;20.05;100.00
10852;BME280;5479;52.046;6.314;2023-09-18T05:10:29;100096.66;;;20.01;100.00
10852;BME280;5479;52.046;6.314;2023-09-18T05:12:57;100103.19;;;20.07;100.00
10852;BME280;5479;52.046;6.314;2023-09-18T05:15:26;100116.50;;;20.16;100.00
10852;BME280;5479;52.046;6.314;2023-09-18T05:17:56;100145.38;;;20.06;100.00
10852;BME280;5479;52.046;6.314;2023-09-18T05:20:25;100138.84;;;20.09;100.00
10852;BME280;5479;52.046;6.314;2023-09-18T05:22:58;100138.66;;;20.10;100.00
10852;BME280;5479;52.046;6.314;2023-09-18T05:25:29;100125.88;;;20.12;100.00
10852;BME280;5479;52.046;6.314;2023-09-18T05:28:00;100121.88;;;20.16;100.00
10852;BME280;5479;52.046;6.314;2023-09-18T05:30:31;100132.94;;;20.21;100.00
10852;BME280;5479;52.046;6.314;2023-09-18T05:33:01;100140.06;;;20.30;100.00
10852;BME280;5479;52.046;6.314;2023-09-18T05:35:32;100145.75;;;20.43;100.00
10852;BME280;5479;52.046;6.314;2023-09-18T05:38:02;100150.09;;;20.53;100.00
10852;BME280;5479;52.046;6.314;2023-09-18T05:40:31;100146.75;;;20.51;100.00
10852;BME280;5479;52.046;6.314;2023-09-18T05:42:59;100146.94;;;20.49;100.00
10852;BME280;5479;52.046;6.314;2023-09-18T05:45:28;100151.13;;;20.43;100.00
10852;BME280;5479;52.046;6.314;2023-09-18T05:47:58;100156.13;;;20.46;100.00
10852;BME280;5479;52.046;6.314;2023-09-18T05:50:31;100173.97;;;20.48;100.00
10852;BME280;5479;52.046;6.314;2023-09-18T05:53:06;100185.41;;;20.41;100.00
10852;BME280;5479;52.046;6.314;2023-09-18T05:55:34;100179.31;;;20.23;100.00
10852;BME280;5479;52.046;6.314;2023-09-18T05:58:03;100184.88;;;20.14;100.00
10852;BME280;5479;52.046;6.314;2023-09-18T06:00:33;100189.88;;;19.93;100.00
10852;BME280;5479;52.046;6.314;2023-09-18T06:03:01;100204.31;;;19.92;100.00
10852;BME280;5479;52.046;6.314;2023-09-18T06:05:29;100219.91;;;19.88;100.00
10852;BME280;5479;52.046;6.314;2023-09-18T06:08:00;100223.28;;;19.82;100.00
10852;BME280;5479;52.046;6.314;2023-09-18T06:10:29;100214.84;;;19.77;100.00
10852;BME280;5479;52.046;6.314;2023-09-18T06:12:57;100222.19;;;19.67;100.00
10852;BME280;5479;52.046;6.314;2023-09-18T06:15:30;100214.44;;;19.56;100.00
10852;BME280;5479;52.046;6.314;2023-09-18T06:17:58;100225.53;;;19.53;100.00
10852;BME280;5479;52.046;6.314;2023-09-18T06:20:26;100228.69;;;19.48;100.00
10852;BME280;5479;52.046;6.314;2023-09-18T06:22:54;100216.28;;;19.47;100.00
10852;BME280;5479;52.046;6.314;2023-09-18T06:25:22;100222.31;;;19.49;100.00
10852;BME280;5479;52.046;6.314;2023-09-18T06:27:52;100224.69;;;19.52;100.00
10852;BME280;5479;52.046;6.314;2023-09-18T06:30:20;100227.19;;;19.54;100.00
10852;BME280;5479;52.046;6.314;2023-09-18T06:32:49;100209.06;;;19.56;100.00
10852;BME280;5479;52.046;6.314;2023-09-18T06:35:17;100205.06;;;19.60;100.00
10852;BME280;5479;52.046;6.314;2023-09-18T06:37:45;100193.78;;;19.56;100.00
10852;BME280;5479;52.046;6.314;2023-09-18T06:40:13;100197.50;;;19.55;100.00
10852;BME280;5479;52.046;6.314;2023-09-18T06:42:42;100191.63;;;19.60;100.00
10852;BME280;5479;52.046;6.314;2023-09-18T06:45:12;100191.97;;;19.65;100.00
10852;BME280;5479;52.046;6.314;2023-09-18T06:47:41;100195.16;;;19.60;100.00
10852;BME280;5479;52.046;6.314;2023-09-18T06:50:09;100203.25;;;19.68;100.00
10852;BME280;5479;52.046;6.314;2023-09-18T06:52:38;100217.00;;;19.65;100.00
10852;BME280;5479;52.046;6.314;2023-09-18T06:55:08;100220.88;;;19.71;100.00
10852;BME280;5479;52.046;6.314;2023-09-18T06:57:36;100215.88;;;19.76;100.00
10852;BME280;5479;52.046;6.314;2023-09-18T07:00:05;100207.81;;;19.84;100.00
10852;BME280;5479;52.046;6.314;2023-09-18T07:02:34;100219.09;;;19.88;100.00
10852;BME280;5479;52.046;6.314;2023-09-18T07:05:03;100221.28;;;19.92;100.00
10852;BME280;5479;52.046;6.314;2023-09-18T07:07:31;100216.59;;;20.02;100.00
10852;BME280;5479;52.046;6.314;2023-09-18T07:09:59;100220.13;;;20.03;100.00
10852;BME280;5479;52.046;6.314;2023-09-18T07:12:27;100229.19;;;20.10;100.00
10852;BME280;5479;52.046;6.314;2023-09-18T07:14:55;100228.72;;;20.06;100.00
10852;BME280;5479;52.046;6.314;2023-09-18T07:17:23;100226.84;;;20.07;100.00
10852;BME280;5479;52.046;6.314;2023-09-18T07:19:54;100224.69;;;20.18;100.00
10852;BME280;5479;52.046;6.314;2023-09-18T07:22:22;100235.44;;;20.18;100.00
10852;BME280;5479;52.046;6.314;2023-09-18T07:24:51;100232.13;;;20.24;100.00
10852;BME280;5479;52.046;6.314;2023-09-18T07:27:19;100238.34;;;20.25;100.00
10852;BME280;5479;52.046;6.314;2023-09-18T07:29:47;100244.22;;;20.28;100.00
10852;BME280;5479;52.046;6.314;2023-09-18T07:32:15;100236.00;;;20.30;100.00
10852;BME280;5479;52.046;6.314;2023-09-18T07:34:43;100231.81;;;20.43;100.00
10852;BME280;5479;52.046;6.314;2023-09-18T07:37:15;100223.56;;;20.37;100.00
10852;BME280;5479;52.046;6.314;2023-09-18T07:39:47;100237.84;;;20.37;100.00
10852;BME280;5479;52.046;6.314;2023-09-18T07:42:16;100242.19;;;20.38;100.00
10852;BME280;5479;52.046;6.314;2023-09-18T07:44:43;100239.88;;;20.35;100.00
10852;BME280;5479;52.046;6.314;2023-09-18T07:47:12;100233.47;;;20.44;100.00
10852;BME280;5479;52.046;6.314;2023-09-18T07:49:40;100231.44;;;20.46;100.00
10852;BME280;5479;52.046;6.314;2023-09-18T07:52:08;100239.19;;;20.58;100.00
10852;BME280;5479;52.046;6.314;2023-09-18T07:54:38;100256.84;;;20.68;100.00
10852;BME280;5479;52.046;6.314;2023-09-18T07:57:05;100242.19;;;20.79;100.00
10852;BME280;5479;52.046;6.314;2023-09-18T07:59:35;100229.44;;;20.89;100.00
10852;BME280;5479;52.046;6.314;2023-09-18T08:02:06;100241.16;;;21.04;100.00
10852;BME280;5479;52.046;6.314;2023-09-18T08:04:35;100249.75;;;21.16;100.00
10852;BME280;5479;52.046;6.314;2023-09-18T08:07:03;100252.47;;;21.08;100.00
10852;BME280;5479;52.046;6.314;2023-09-18T08:09:34;100240.31;;;21.03;100.00
10852;BME280;5479;52.046;6.314;2023-09-18T08:12:05;100241.72;;;21.08;100.00
10852;BME280;5479;52.046;6.314;2023-09-18T08:14:33;100254.97;;;21.17;100.00
10852;BME280;5479;52.046;6.314;2023-09-18T08:17:03;100257.00;;;21.07;100.00
10852;BME280;5479;52.046;6.314;2023-09-18T08:19:32;100260.69;;;21.14;100.00
10852;BME280;5479;52.046;6.314;2023-09-18T08:22:00;100262.38;;;21.15;100.00
10852;BME280;5479;52.046;6.314;2023-09-18T08:24:28;100261.03;;;21.11;100.00
10852;BME280;5479;52.046;6.314;2023-09-18T08:26:56;100259.50;;;21.17;100.00
10852;BME280;5479;52.046;6.314;2023-09-18T08:29:26;100261.00;;;21.19;100.00
10852;BME280;5479;52.046;6.314;2023-09-18T08:31:54;100269.78;;;21.05;100.00
10852;BME280;5479;52.046;6.314;2023-09-18T08:34:29;100269.09;;;21.11;100.00
10852;BME280;5479;52.046;6.314;2023-09-18T08:37:31;100255.44;;;21.29;100.00
10852;BME280;5479;52.046;6.314;2023-09-18T08:40:16;100265.09;;;21.62;100.00
10852;BME280;5479;52.046;6.314;2023-09-18T08:42:48;100264.88;;;21.80;100.00
10852;BME280;5479;52.046;6.314;2023-09-18T08:45:31;100267.19;;;21.91;100.00
10852;BME280;5479;52.046;6.314;2023-09-18T08:48:01;100267.41;;;22.12;100.00
10852;BME280;5479;52.046;6.314;2023-09-18T08:50:30;100275.31;;;22.13;100.00
10852;BME280;5479;52.046;6.314;2023-09-18T08:52:59;100282.81;;;22.26;100.00
10852;BME280;5479;52.046;6.314;2023-09-18T08:55:28;100278.16;;;22.20;100.00
10852;BME280;5479;52.046;6.314;2023-09-18T08:57:58;100274.13;;;22.16;100.00
10852;BME280;5479;52.046;6.314;2023-09-18T09:00:29;100270.47;;;22.09;100.00
10852;BME280;5479;52.046;6.314;2023-09-18T09:02:57;100270.16;;;22.04;100.00
10852;BME280;5479;52.046;6.314;2023-09-18T09:05:25;100269.47;;;22.02;100.00
10852;BME280;5479;52.046;6.314;2023-09-18T09:07:53;100272.66;;;22.36;100.00
10852;BME280;5479;52.046;6.314;2023-09-18T09:10:22;100280.25;;;22.33;100.00
10852;BME280;5479;52.046;6.314;2023-09-18T09:12:53;100284.91;;;22.69;100.00
10852;BME280;5479;52.046;6.314;2023-09-18T09:15:23;100286.31;;;23.03;100.00
10852;BME280;5479;52.046;6.314;2023-09-18T09:18:04;100274.84;;;23.38;100.00
10852;BME280;5479;52.046;6.314;2023-09-18T09:20:33;100273.72;;;23.62;100.00
10852;BME280;5479;52.046;6.314;2023-09-18T09:23:03;100287.69;;;23.65;100.00
10852;BME280;5479;52.046;6.314;2023-09-18T09:25:32;100291.59;;;23.77;100.00
10852;BME280;5479;52.046;6.314;2023-09-18T09:28:02;100295.88;;;23.57;100.00
10852;BME280;5479;52.046;6.314;2023-09-18T09:30:32;100289.38;;;23.37;100.00
10852;BME280;5479;52.046;6.314;2023-09-18T09:33:03;100293.66;;;23.46;100.00
10852;BME280;5479;52.046;6.314;2023-09-18T09:35:38;100293.50;;;23.25;100.00
10852;BME280;5479;52.046;6.314;2023-09-18T09:38:10;100290.28;;;23.44;100.00
10852;BME280;5479;52.046;6.314;2023-09-18T09:40:40;100287.88;;;23.49;100.00
10852;BME280;5479;52.046;6.314;2023-09-18T09:43:11;100280.72;;;23.56;100.00
10852;BME280;5479;52.046;6.314;2023-09-18T09:45:41;100290.97;;;23.61;100.00
10852;BME280;5479;52.046;6.314;2023-09-18T09:48:10;100291.41;;;23.50;100.00
10852;BME280;5479;52.046;6.314;2023-09-18T09:50:44;100295.78;;;23.80;100.00
10852;BME280;5479;52.046;6.314;2023-09-18T09:53:13;100290.56;;;23.78;100.00
10852;BME280;5479;52.046;6.314;2023-09-18T09:55:44;100293.97;;;24.16;100.00
10852;BME280;5479;52.046;6.314;2023-09-18T09:58:12;100284.72;;;24.82;100.00
10852;BME280;5479;52.046;6.314;2023-09-18T10:00:43;100279.31;;;25.72;100.00
10852;BME280;5479;52.046;6.314;2023-09-18T10:03:16;100288.03;;;27.28;100.00
10852;BME280;5479;52.046;6.314;2023-09-18T10:05:46;100273.00;;;27.25;100.00
10852;BME280;5479;52.046;6.314;2023-09-18T10:08:18;100285.56;;;27.97;100.00
10852;BME280;5479;52.046;6.314;2023-09-18T10:10:48;100300.16;;;27.51;100.00
10852;BME280;5479;52.046;6.314;2023-09-18T10:13:18;100298.34;;;28.03;100.00
10852;BME280;5479;52.046;6.314;2023-09-18T10:15:50;100306.81;;;27.69;100.00
10852;BME280;5479;52.046;6.314;2023-09-18T10:18:26;100293.44;;;27.54;100.00
10852;BME280;5479;52.046;6.314;2023-09-18T10:20:59;100301.34;;;27.75;100.00
10852;BME280;5479;52.046;6.314;2023-09-18T10:23:41;100314.47;;;28.49;100.00
10852;BME280;5479;52.046;6.314;2023-09-18T10:26:18;100314.41;;;29.18;98.44
10852;BME280;5479;52.046;6.314;2023-09-18T10:28:53;100306.88;;;29.81;91.47
10852;BME280;5479;52.046;6.314;2023-09-18T10:31:26;100308.03;;;30.69;79.29
10852;BME280;5479;52.046;6.314;2023-09-18T10:33:56;100311.88;;;29.16;89.91
10852;BME280;5479;52.046;6.314;2023-09-18T10:36:26;100291.75;;;28.61;88.52
10852;BME280;5479;52.046;6.314;2023-09-18T10:38:56;100314.50;;;28.42;95.96
10852;BME280;5479;52.046;6.314;2023-09-18T10:41:26;100307.09;;;28.49;96.87
10852;BME280;5479;52.046;6.314;2023-09-18T10:43:56;100290.75;;;28.62;86.93
10852;BME280;5479;52.046;6.314;2023-09-18T10:46:25;100299.75;;;28.56;94.79
10852;BME280;5479;52.046;6.314;2023-09-18T10:48:56;100309.75;;;27.74;96.00
10852;BME280;5479;52.046;6.314;2023-09-18T10:51:24;100306.88;;;27.03;100.00
10852;BME280;5479;52.046;6.314;2023-09-18T10:53:53;100313.53;;;26.14;100.00
10852;BME280;5479;52.046;6.314;2023-09-18T10:56:24;100311.97;;;25.30;100.00
10852;BME280;5479;52.046;6.314;2023-09-18T10:58:57;100322.88;;;24.87;100.00
10852;BME280;5479;52.046;6.314;2023-09-18T11:01:27;100320.78;;;25.10;100.00
10852;BME280;5479;52.046;6.314;2023-09-18T11:04:00;100330.59;;;25.11;100.00
10852;BME280;5479;52.046;6.314;2023-09-18T11:06:29;100324.53;;;24.88;100.00
10852;BME280;5479;52.046;6.314;2023-09-18T11:09:02;100323.88;;;24.65;100.00
10852;BME280;5479;52.046;6.314;2023-09-18T11:11:31;100323.75;;;24.52;100.00
10852;BME280;5479;52.046;6.314;2023-09-18T11:14:01;100318.84;;;24.62;100.00
10852;BME280;5479;52.046;6.314;2023-09-18T11:16:35;100321.28;;;24.78;100.00
10852;BME280;5479;52.046;6.314;2023-09-18T11:19:09;100316.00;;;24.70;100.00
10852;BME280;5479;52.046;6.314;2023-09-18T11:21:37;100330.91;;;24.59;100.00
10852;BME280;5479;52.046;6.314;2023-09-18T11:24:07;100317.72;;;24.35;100.00
10852;BME280;5479;52.046;6.314;2023-09-18T11:26:40;100322.56;;;24.40;100.00
10852;BME280;5479;52.046;6.314;2023-09-18T11:29:10;100313.88;;;24.44;100.00
10852;BME280;5479;52.046;6.314;2023-09-18T11:31:44;100316.75;;;24.79;100.00
10852;BME280;5479;52.046;6.314;2023-09-18T11:34:20;100311.72;;;25.52;100.00
10852;BME280;5479;52.046;6.314;2023-09-18T11:36:49;100311.47;;;25.75;100.00
10852;BME280;5479;52.046;6.314;2023-09-18T11:39:33;100310.91;;;26.27;100.00
10852;BME280;5479;52.046;6.314;2023-09-18T11:42:10;100309.31;;;26.72;100.00
10852;BME280;5479;52.046;6.314;2023-09-18T11:44:40;100312.88;;;26.66;100.00
10852;BME280;5479;52.046;6.314;2023-09-18T11:47:09;100313.78;;;26.99;100.00
10852;BME280;5479;52.046;6.314;2023-09-18T11:49:50;100302.69;;;27.07;100.00
10852;BME280;5479;52.046;6.314;2023-09-18T11:52:22;100303.09;;;27.24;100.00
10852;BME280;5479;52.046;6.314;2023-09-18T11:54:51;100288.84;;;27.48;100.00
10852;BME280;5479;52.046;6.314;2023-09-18T11:57:19;100293.22;;;27.62;100.00
10852;BME280;5479;52.046;6.314;2023-09-18T11:59:48;100286.38;;;27.46;92.96
10852;BME280;5479;52.046;6.314;2023-09-18T12:02:25;100278.19;;;27.33;97.91
10852;BME280;5479;52.046;6.314;2023-09-18T12:04:56;100282.19;;;26.98;100.00
10852;BME280;5479;52.046;6.314;2023-09-18T12:07:24;100274.66;;;27.00;100.00
10852;BME280;5479;52.046;6.314;2023-09-18T12:09:52;100282.41;;;27.16;96.43
10852;BME280;5479;52.046;6.314;2023-09-18T12:12:21;100288.00;;;26.69;98.12
10852;BME280;5479;52.046;6.314;2023-09-18T12:14:52;100279.47;;;26.11;100.00
10852;BME280;5479;52.046;6.314;2023-09-18T12:17:20;100271.94;;;26.00;100.00
10852;BME280;5479;52.046;6.314;2023-09-18T12:19:52;100278.00;;;26.02;100.00
10852;BME280;5479;52.046;6.314;2023-09-18T12:22:26;100274.69;;;25.66;100.00
10852;BME280;5479;52.046;6.314;2023-09-18T12:25:08;100294.69;;;25.03;100.00
10852;BME280;5479;52.046;6.314;2023-09-18T12:27:37;100299.88;;;24.41;100.00
10852;BME280;5479;52.046;6.314;2023-09-18T12:30:07;100316.41;;;23.66;100.00
10852;BME280;5479;52.046;6.314;2023-09-18T12:32:36;100307.56;;;23.06;100.00
10852;BME280;5479;52.046;6.314;2023-09-18T12:35:06;100300.59;;;22.66;100.00
10852;BME280;5479;52.046;6.314;2023-09-18T12:37:39;100292.13;;;22.46;100.00
10852;BME280;5479;52.046;6.314;2023-09-18T12:40:20;100295.72;;;22.61;100.00
10852;BME280;5479;52.046;6.314;2023-09-18T12:42:50;100291.63;;;22.73;100.00
10852;BME280;5479;52.046;6.314;2023-09-18T12:45:20;100290.09;;;22.94;100.00
10852;BME280;5479;52.046;6.314;2023-09-18T12:47:50;100282.22;;;23.07;100.00
10852;BME280;5479;52.046;6.314;2023-09-18T12:50:18;100281.31;;;23.29;100.00
10852;BME280;5479;52.046;6.314;2023-09-18T12:52:48;100271.38;;;23.59;100.00
10852;BME280;5479;52.046;6.314;2023-09-18T12:55:23;100273.03;;;23.60;100.00
10852;BME280;5479;52.046;6.314;2023-09-18T12:57:52;100274.31;;;23.93;100.00
10852;BME280;5479;52.046;6.314;2023-09-18T13:00:22;100265.25;;;24.00;100.00
10852;BME280;5479;52.046;6.314;2023-09-18T13:02:53;100273.28;;;24.09;100.00
10852;BME280;5479;52.046;6.314;2023-09-18T13:05:23;100262.31;;;24.31;100.00